Pouch Cove, Canada
Current Conditions -  °F | °C
As of 8:00 AM on Saturday 22 Nov 2014 (Local Time) from CYYT Reporting Station
Scattered Clouds Scattered Clouds  
Wind Chill: 10°   Ceiling: Unl
Heat Index: 25°   Visibility: 15mi
Dew Point: 14°   Wind: 21mph
Humidity: 64%   Direction: 290°WNW
Pressure: 29.56"   Gusts: 32mph
Location:  47.76°N, 52.76°W
Report Text: CYYT 221100Z 29018G28KT 15SM SCT035 M04/M10 A2956 RMK SC4 SLP017
Loading
Personal Weather Stations






























Interactive Weather Map New forecast layout! Learn more

10-Day Weather Forecast

Advertisements
Track Severe Weather on mobile